sensor_id;sensor_type;location;lat;lon;timestamp;P1;durP1;ratioP1;P2;durP2;ratioP2
43248;SDS011;29216;51.248;6.808;2023-09-12T00:01:03;12.50;;;9.50;;
43248;SDS011;29216;51.248;6.808;2023-09-12T00:03:30;13.38;;;9.77;;
43248;SDS011;29216;51.248;6.808;2023-09-12T00:05:58;15.68;;;10.50;;
43248;SDS011;29216;51.248;6.808;2023-09-12T00:08:24;15.70;;;10.05;;
43248;SDS011;29216;51.248;6.808;2023-09-12T00:11:05;13.52;;;9.88;;
43248;SDS011;29216;51.248;6.808;2023-09-12T00:13:38;14.68;;;9.68;;
43248;SDS011;29216;51.248;6.808;2023-09-12T00:16:04;17.70;;;10.23;;
43248;SDS011;29216;51.248;6.808;2023-09-12T00:18:31;13.98;;;9.20;;
43248;SDS011;29216;51.248;6.808;2023-09-12T00:20:59;16.58;;;10.32;;
43248;SDS011;29216;51.248;6.808;2023-09-12T00:23:26;19.48;;;10.70;;
43248;SDS011;29216;51.248;6.808;2023-09-12T00:25:52;14.85;;;10.88;;
43248;SDS011;29216;51.248;6.808;2023-09-12T00:28:18;19.00;;;11.60;;
43248;SDS011;29216;51.248;6.808;2023-09-12T00:30:44;18.38;;;11.63;;
43248;SDS011;29216;51.248;6.808;2023-09-12T00:33:10;18.20;;;11.93;;
43248;SDS011;29216;51.248;6.808;2023-09-12T00:35:36;17.65;;;12.32;;
43248;SDS011;29216;51.248;6.808;2023-09-12T00:38:02;13.95;;;10.82;;
43248;SDS011;29216;51.248;6.808;2023-09-12T00:40:28;19.52;;;11.18;;
43248;SDS011;29216;51.248;6.808;2023-09-12T00:42:55;17.83;;;10.60;;
43248;SDS011;29216;51.248;6.808;2023-09-12T00:45:21;14.00;;;9.48;;
43248;SDS011;29216;51.248;6.808;2023-09-12T00:47:47;13.23;;;9.27;;
43248;SDS011;29216;51.248;6.808;2023-09-12T00:50:13;12.52;;;9.20;;
43248;SDS011;29216;51.248;6.808;2023-09-12T00:52:40;12.27;;;8.30;;
43248;SDS011;29216;51.248;6.808;2023-09-12T00:55:07;9.68;;;7.43;;
43248;SDS011;29216;51.248;6.808;2023-09-12T00:57:33;14.38;;;7.88;;
43248;SDS011;29216;51.248;6.808;2023-09-12T01:00:00;11.55;;;8.02;;
43248;SDS011;29216;51.248;6.808;2023-09-12T01:02:29;11.90;;;8.40;;
43248;SDS011;29216;51.248;6.808;2023-09-12T01:04:55;11.88;;;8.45;;
43248;SDS011;29216;51.248;6.808;2023-09-12T01:07:21;11.93;;;8.48;;
43248;SDS011;29216;51.248;6.808;2023-09-12T01:09:47;12.27;;;8.52;;
43248;SDS011;29216;51.248;6.808;2023-09-12T01:12:13;12.95;;;8.57;;
43248;SDS011;29216;51.248;6.808;2023-09-12T01:14:40;12.65;;;8.18;;
43248;SDS011;29216;51.248;6.808;2023-09-12T01:17:06;13.38;;;9.10;;
43248;SDS011;29216;51.248;6.808;2023-09-12T01:19:32;14.52;;;9.90;;
43248;SDS011;29216;51.248;6.808;2023-09-12T01:29:59;20.98;;;14.07;;
43248;SDS011;29216;51.248;6.808;2023-09-12T01:32:26;21.95;;;14.10;;
43248;SDS011;29216;51.248;6.808;2023-09-12T01:34:52;21.70;;;14.48;;
43248;SDS011;29216;51.248;6.808;2023-09-12T01:37:18;21.42;;;14.85;;
43248;SDS011;29216;51.248;6.808;2023-09-12T01:39:44;25.55;;;14.70;;
43248;SDS011;29216;51.248;6.808;2023-09-12T01:42:14;20.67;;;15.02;;
43248;SDS011;29216;51.248;6.808;2023-09-12T01:44:43;19.38;;;13.63;;
43248;SDS011;29216;51.248;6.808;2023-09-12T01:47:09;23.42;;;14.88;;
43248;SDS011;29216;51.248;6.808;2023-09-12T01:49:36;24.23;;;14.98;;
43248;SDS011;29216;51.248;6.808;2023-09-12T01:52:03;22.17;;;14.88;;
43248;SDS011;29216;51.248;6.808;2023-09-12T01:54:29;23.88;;;14.70;;
43248;SDS011;29216;51.248;6.808;2023-09-12T01:56:55;20.50;;;15.05;;
43248;SDS011;29216;51.248;6.808;2023-09-12T01:59:23;25.73;;;15.32;;
43248;SDS011;29216;51.248;6.808;2023-09-12T02:01:49;22.10;;;15.82;;
43248;SDS011;29216;51.248;6.808;2023-09-12T02:04:15;25.23;;;16.20;;
43248;SDS011;29216;51.248;6.808;2023-09-12T02:06:41;30.08;;;17.08;;
43248;SDS011;29216;51.248;6.808;2023-09-12T02:09:07;22.48;;;14.93;;
43248;SDS011;29216;51.248;6.808;2023-09-12T02:11:33;19.08;;;14.65;;
43248;SDS011;29216;51.248;6.808;2023-09-12T02:13:59;25.35;;;16.13;;
43248;SDS011;29216;51.248;6.808;2023-09-12T02:16:25;22.30;;;16.30;;
43248;SDS011;29216;51.248;6.808;2023-09-12T02:18:51;21.13;;;14.57;;
43248;SDS011;29216;51.248;6.808;2023-09-12T02:21:17;29.13;;;15.48;;
43248;SDS011;29216;51.248;6.808;2023-09-12T02:23:43;18.33;;;14.68;;
43248;SDS011;29216;51.248;6.808;2023-09-12T02:26:09;22.13;;;15.00;;
43248;SDS011;29216;51.248;6.808;2023-09-12T02:28:35;18.98;;;13.73;;
43248;SDS011;29216;51.248;6.808;2023-09-12T02:31:01;22.33;;;15.52;;
43248;SDS011;29216;51.248;6.808;2023-09-12T02:33:27;22.48;;;14.50;;
43248;SDS011;29216;51.248;6.808;2023-09-12T02:35:53;21.67;;;15.45;;
43248;SDS011;29216;51.248;6.808;2023-09-12T02:38:19;23.67;;;16.80;;
43248;SDS011;29216;51.248;6.808;2023-09-12T02:40:45;21.38;;;16.10;;
43248;SDS011;29216;51.248;6.808;2023-09-12T02:43:11;22.23;;;15.73;;
43248;SDS011;29216;51.248;6.808;2023-09-12T02:45:37;24.50;;;15.95;;
43248;SDS011;29216;51.248;6.808;2023-09-12T02:48:03;19.30;;;15.43;;
43248;SDS011;29216;51.248;6.808;2023-09-12T02:50:29;20.60;;;15.98;;
43248;SDS011;29216;51.248;6.808;2023-09-12T02:52:55;25.75;;;16.98;;
43248;SDS011;29216;51.248;6.808;2023-09-12T02:55:21;25.83;;;17.58;;
43248;SDS011;29216;51.248;6.808;2023-09-12T02:57:47;26.58;;;17.10;;
43248;SDS011;29216;51.248;6.808;2023-09-12T03:00:13;25.25;;;17.52;;
43248;SDS011;29216;51.248;6.808;2023-09-12T03:02:39;23.90;;;16.35;;
43248;SDS011;29216;51.248;6.808;2023-09-12T03:05:05;20.17;;;16.83;;
43248;SDS011;29216;51.248;6.808;2023-09-12T03:07:31;24.27;;;17.33;;
43248;SDS011;29216;51.248;6.808;2023-09-12T03:09:57;22.58;;;16.42;;
43248;SDS011;29216;51.248;6.808;2023-09-12T03:12:23;25.08;;;18.17;;
43248;SDS011;29216;51.248;6.808;2023-09-12T03:14:49;22.20;;;17.25;;
43248;SDS011;29216;51.248;6.808;2023-09-12T03:17:15;28.08;;;16.95;;
43248;SDS011;29216;51.248;6.808;2023-09-12T03:19:41;24.90;;;18.30;;
43248;SDS011;29216;51.248;6.808;2023-09-12T03:22:07;24.42;;;17.63;;
43248;SDS011;29216;51.248;6.808;2023-09-12T03:24:33;26.52;;;19.50;;
43248;SDS011;29216;51.248;6.808;2023-09-12T03:26:59;26.67;;;18.35;;
43248;SDS011;29216;51.248;6.808;2023-09-12T03:29:25;22.92;;;17.30;;
43248;SDS011;29216;51.248;6.808;2023-09-12T03:31:51;23.42;;;17.17;;
43248;SDS011;29216;51.248;6.808;2023-09-12T03:34:17;22.55;;;16.27;;
43248;SDS011;29216;51.248;6.808;2023-09-12T03:36:43;22.30;;;16.23;;
43248;SDS011;29216;51.248;6.808;2023-09-12T03:39:09;26.88;;;19.27;;
43248;SDS011;29216;51.248;6.808;2023-09-12T03:41:38;29.25;;;18.17;;
43248;SDS011;29216;51.248;6.808;2023-09-12T03:44:04;23.55;;;17.17;;
43248;SDS011;29216;51.248;6.808;2023-09-12T03:46:30;25.60;;;18.80;;
43248;SDS011;29216;51.248;6.808;2023-09-12T03:48:56;26.20;;;19.80;;
43248;SDS011;29216;51.248;6.808;2023-09-12T03:51:22;24.02;;;16.35;;
43248;SDS011;29216;51.248;6.808;2023-09-12T03:53:48;24.42;;;16.40;;
43248;SDS011;29216;51.248;6.808;2023-09-12T03:56:15;21.52;;;16.13;;
43248;SDS011;29216;51.248;6.808;2023-09-12T03:58:41;21.77;;;14.65;;
43248;SDS011;29216;51.248;6.808;2023-09-12T04:01:07;20.20;;;15.27;;
43248;SDS011;29216;51.248;6.808;2023-09-12T04:03:33;20.90;;;14.82;;
43248;SDS011;29216;51.248;6.808;2023-09-12T04:05:59;21.70;;;13.98;;
43248;SDS011;29216;51.248;6.808;2023-09-12T04:08:25;14.77;;;11.85;;
43248;SDS011;29216;51.248;6.808;2023-09-12T04:10:51;16.90;;;11.70;;
43248;SDS011;29216;51.248;6.808;2023-09-12T04:13:17;15.48;;;12.20;;
43248;SDS011;29216;51.248;6.808;2023-09-12T04:15:43;17.27;;;11.38;;
43248;SDS011;29216;51.248;6.808;2023-09-12T04:18:09;15.07;;;10.55;;
43248;SDS011;29216;51.248;6.808;2023-09-12T04:20:35;13.23;;;10.40;;
43248;SDS011;29216;51.248;6.808;2023-09-12T04:23:01;14.80;;;10.38;;
43248;SDS011;29216;51.248;6.808;2023-09-12T04:25:30;13.73;;;10.77;;
43248;SDS011;29216;51.248;6.808;2023-09-12T04:27:56;14.48;;;9.60;;
43248;SDS011;29216;51.248;6.808;2023-09-12T04:30:22;13.07;;;10.35;;
43248;SDS011;29216;51.248;6.808;2023-09-12T04:32:48;12.80;;;9.70;;
43248;SDS011;29216;51.248;6.808;2023-09-12T04:35:14;13.20;;;9.25;;
43248;SDS011;29216;51.248;6.808;2023-09-12T04:37:40;11.82;;;8.75;;
43248;SDS011;29216;51.248;6.808;2023-09-12T04:40:07;11.15;;;8.80;;
43248;SDS011;29216;51.248;6.808;2023-09-12T04:42:33;11.40;;;8.98;;
43248;SDS011;29216;51.248;6.808;2023-09-12T04:44:59;13.68;;;8.30;;
43248;SDS011;29216;51.248;6.808;2023-09-12T04:47:25;11.05;;;8.05;;
43248;SDS011;29216;51.248;6.808;2023-09-12T04:49:52;9.70;;;7.45;;
43248;SDS011;29216;51.248;6.808;2023-09-12T04:52:18;10.80;;;7.90;;
43248;SDS011;29216;51.248;6.808;2023-09-12T04:54:44;9.93;;;8.00;;
43248;SDS011;29216;51.248;6.808;2023-09-12T04:57:10;8.73;;;7.25;;
43248;SDS011;29216;51.248;6.808;2023-09-12T04:59:37;14.05;;;7.38;;
43248;SDS011;29216;51.248;6.808;2023-09-12T05:02:03;12.38;;;7.78;;
43248;SDS011;29216;51.248;6.808;2023-09-12T05:04:29;9.68;;;8.02;;
43248;SDS011;29216;51.248;6.808;2023-09-12T05:06:55;10.48;;;7.97;;
43248;SDS011;29216;51.248;6.808;2023-09-12T05:09:21;10.73;;;7.88;;
43248;SDS011;29216;51.248;6.808;2023-09-12T05:11:47;11.13;;;8.02;;
43248;SDS011;29216;51.248;6.808;2023-09-12T05:14:13;10.80;;;7.07;;
43248;SDS011;29216;51.248;6.808;2023-09-12T05:16:39;9.98;;;7.00;;
43248;SDS011;29216;51.248;6.808;2023-09-12T05:19:05;10.70;;;7.72;;
43248;SDS011;29216;51.248;6.808;2023-09-12T05:21:31;11.40;;;7.78;;
43248;SDS011;29216;51.248;6.808;2023-09-12T05:23:57;12.82;;;7.63;;
43248;SDS011;29216;51.248;6.808;2023-09-12T05:26:23;10.63;;;7.97;;
43248;SDS011;29216;51.248;6.808;2023-09-12T05:28:49;10.77;;;7.85;;
43248;SDS011;29216;51.248;6.808;2023-09-12T05:31:15;12.13;;;8.52;;
43248;SDS011;29216;51.248;6.808;2023-09-12T05:33:41;10.57;;;7.63;;
43248;SDS011;29216;51.248;6.808;2023-09-12T05:36:07;11.48;;;7.47;;
43248;SDS011;29216;51.248;6.808;2023-09-12T05:38:33;9.63;;;7.47;;
43248;SDS011;29216;51.248;6.808;2023-09-12T05:40:59;9.43;;;7.25;;
43248;SDS011;29216;51.248;6.808;2023-09-12T05:43:25;10.80;;;7.80;;
43248;SDS011;29216;51.248;6.808;2023-09-12T05:45:51;11.65;;;8.55;;
43248;SDS011;29216;51.248;6.808;2023-09-12T05:48:18;15.70;;;10.35;;
43248;SDS011;29216;51.248;6.808;2023-09-12T05:50:44;19.77;;;12.75;;
43248;SDS011;29216;51.248;6.808;2023-09-12T05:53:10;18.95;;;13.57;;
43248;SDS011;29216;51.248;6.808;2023-09-12T05:55:36;20.55;;;14.75;;
43248;SDS011;29216;51.248;6.808;2023-09-12T05:58:02;21.30;;;17.30;;
43248;SDS011;29216;51.248;6.808;2023-09-12T06:00:30;25.95;;;17.30;;
43248;SDS011;29216;51.248;6.808;2023-09-12T06:02:56;21.27;;;15.65;;
43248;SDS011;29216;51.248;6.808;2023-09-12T06:05:22;23.65;;;16.55;;
43248;SDS011;29216;51.248;6.808;2023-09-12T06:07:49;25.42;;;17.27;;
43248;SDS011;29216;51.248;6.808;2023-09-12T06:10:15;22.77;;;16.00;;
43248;SDS011;29216;51.248;6.808;2023-09-12T06:12:41;28.95;;;19.02;;
43248;SDS011;29216;51.248;6.808;2023-09-12T06:15:07;26.15;;;17.80;;
43248;SDS011;29216;51.248;6.808;2023-09-12T06:17:33;24.85;;;16.55;;
43248;SDS011;29216;51.248;6.808;2023-09-12T06:19:59;19.85;;;14.77;;
43248;SDS011;29216;51.248;6.808;2023-09-12T06:22:25;16.60;;;12.20;;
43248;SDS011;29216;51.248;6.808;2023-09-12T06:24:51;16.92;;;12.52;;
43248;SDS011;29216;51.248;6.808;2023-09-12T06:27:17;18.17;;;12.63;;
43248;SDS011;29216;51.248;6.808;2023-09-12T06:29:44;18.42;;;13.15;;
43248;SDS011;29216;51.248;6.808;2023-09-12T06:32:10;17.70;;;11.75;;
43248;SDS011;29216;51.248;6.808;2023-09-12T06:34:36;14.82;;;11.05;;
43248;SDS011;29216;51.248;6.808;2023-09-12T06:37:02;20.40;;;13.00;;
43248;SDS011;29216;51.248;6.808;2023-09-12T06:39:29;18.75;;;12.68;;
43248;SDS011;29216;51.248;6.808;2023-09-12T06:41:55;17.10;;;10.13;;
43248;SDS011;29216;51.248;6.808;2023-09-12T06:44:21;14.90;;;9.65;;
43248;SDS011;29216;51.248;6.808;2023-09-12T06:46:53;13.65;;;9.60;;
43248;SDS011;29216;51.248;6.808;2023-09-12T06:49:22;13.85;;;8.18;;
43248;SDS011;29216;51.248;6.808;2023-09-12T06:51:54;11.90;;;8.55;;
43248;SDS011;29216;51.248;6.808;2023-09-12T06:54:26;9.40;;;7.18;;
43248;SDS011;29216;51.248;6.808;2023-09-12T06:56:58;12.10;;;7.72;;
43248;SDS011;29216;51.248;6.808;2023-09-12T06:59:28;11.98;;;7.28;;
43248;SDS011;29216;51.248;6.808;2023-09-12T07:01:54;9.70;;;7.53;;
43248;SDS011;29216;51.248;6.808;2023-09-12T07:04:22;11.88;;;6.85;;
43248;SDS011;29216;51.248;6.808;2023-09-12T07:06:49;10.05;;;6.90;;
43248;SDS011;29216;51.248;6.808;2023-09-12T07:09:16;7.80;;;6.13;;
43248;SDS011;29216;51.248;6.808;2023-09-12T07:11:42;7.63;;;6.35;;
43248;SDS011;29216;51.248;6.808;2023-09-12T07:14:11;9.07;;;6.60;;
43248;SDS011;29216;51.248;6.808;2023-09-12T07:16:37;7.68;;;6.88;;
43248;SDS011;29216;51.248;6.808;2023-09-12T07:19:03;11.77;;;7.95;;
43248;SDS011;29216;51.248;6.808;2023-09-12T07:21:29;9.98;;;7.38;;
43248;SDS011;29216;51.248;6.808;2023-09-12T07:23:55;11.95;;;7.85;;
43248;SDS011;29216;51.248;6.808;2023-09-12T07:26:21;9.18;;;7.00;;
43248;SDS011;29216;51.248;6.808;2023-09-12T07:28:47;11.63;;;7.05;;
43248;SDS011;29216;51.248;6.808;2023-09-12T07:31:14;7.47;;;6.60;;
43248;SDS011;29216;51.248;6.808;2023-09-12T07:33:40;8.50;;;5.70;;
43248;SDS011;29216;51.248;6.808;2023-09-12T07:36:06;13.65;;;5.85;;
43248;SDS011;29216;51.248;6.808;2023-09-12T07:38:32;8.93;;;5.80;;
43248;SDS011;29216;51.248;6.808;2023-09-12T07:41:00;8.35;;;5.38;;
43248;SDS011;29216;51.248;6.808;2023-09-12T07:43:27;7.63;;;5.57;;
43248;SDS011;29216;51.248;6.808;2023-09-12T07:45:57;6.78;;;5.05;;
43248;SDS011;29216;51.248;6.808;2023-09-12T07:48:23;5.60;;;4.45;;
43248;SDS011;29216;51.248;6.808;2023-09-12T07:50:55;5.30;;;4.03;;
43248;SDS011;29216;51.248;6.808;2023-09-12T07:53:21;5.35;;;3.97;;
43248;SDS011;29216;51.248;6.808;2023-09-12T07:55:47;6.75;;;3.92;;
43248;SDS011;29216;51.248;6.808;2023-09-12T07:58:17;5.70;;;3.97;;
43248;SDS011;29216;51.248;6.808;2023-09-12T08:00:52;8.32;;;4.50;;
43248;SDS011;29216;51.248;6.808;2023-09-12T08:03:18;5.05;;;4.00;;
43248;SDS011;29216;51.248;6.808;2023-09-12T08:05:44;6.60;;;4.10;;
43248;SDS011;29216;51.248;6.808;2023-09-12T08:08:11;8.65;;;3.65;;
43248;SDS011;29216;51.248;6.808;2023-09-12T08:10:37;10.82;;;3.58;;
43248;SDS011;29216;51.248;6.808;2023-09-12T08:13:03;6.05;;;3.50;;
43248;SDS011;29216;51.248;6.808;2023-09-12T08:15:29;7.68;;;3.70;;
43248;SDS011;29216;51.248;6.808;2023-09-12T08:17:55;6.32;;;3.22;;
43248;SDS011;29216;51.248;6.808;2023-09-12T08:20:21;4.78;;;3.40;;
43248;SDS011;29216;51.248;6.808;2023-09-12T08:22:47;3.80;;;3.05;;
43248;SDS011;29216;51.248;6.808;2023-09-12T08:25:13;4.80;;;2.90;;
43248;SDS011;29216;51.248;6.808;2023-09-12T08:27:39;3.10;;;2.50;;
43248;SDS011;29216;51.248;6.808;2023-09-12T08:30:07;8.00;;;2.67;;
43248;SDS011;29216;51.248;6.808;2023-09-12T08:32:33;4.82;;;2.47;;
43248;SDS011;29216;51.248;6.808;2023-09-12T08:34:59;3.63;;;2.67;;
43248;SDS011;29216;51.248;6.808;2023-09-12T08:37:25;3.20;;;2.47;;
43248;SDS011;29216;51.248;6.808;2023-09-12T08:39:52;4.90;;;2.95;;
43248;SDS011;29216;51.248;6.808;2023-09-12T08:42:21;4.85;;;2.60;;
43248;SDS011;29216;51.248;6.808;2023-09-12T08:44:48;4.50;;;2.50;;
43248;SDS011;29216;51.248;6.808;2023-09-12T08:47:14;3.10;;;2.40;;
43248;SDS011;29216;51.248;6.808;2023-09-12T08:49:41;3.75;;;2.17;;
43248;SDS011;29216;51.248;6.808;2023-09-12T08:52:09;5.03;;;2.22;;
43248;SDS011;29216;51.248;6.808;2023-09-12T08:54:35;4.97;;;2.30;;
43248;SDS011;29216;51.248;6.808;2023-09-12T08:57:01;4.90;;;2.28;;
43248;SDS011;29216;51.248;6.808;2023-09-12T08:59:29;3.20;;;2.20;;
43248;SDS011;29216;51.248;6.808;2023-09-12T09:01:55;3.85;;;2.25;;
43248;SDS011;29216;51.248;6.808;2023-09-12T09:04:23;5.20;;;2.10;;
43248;SDS011;29216;51.248;6.808;2023-09-12T09:06:51;3.65;;;2.10;;
43248;SDS011;29216;51.248;6.808;2023-09-12T09:09:19;3.50;;;2.47;;
43248;SDS011;29216;51.248;6.808;2023-09-12T09:11:46;5.35;;;2.60;;
43248;SDS011;29216;51.248;6.808;2023-09-12T09:14:13;6.72;;;2.88;;
43248;SDS011;29216;51.248;6.808;2023-09-12T09:16:39;5.13;;;3.72;;
43248;SDS011;29216;51.248;6.808;2023-09-12T09:19:05;8.18;;;3.63;;
43248;SDS011;29216;51.248;6.808;2023-09-12T09:21:35;4.78;;;2.88;;
43248;SDS011;29216;51.248;6.808;2023-09-12T09:24:06;7.28;;;2.55;;
43248;SDS011;29216;51.248;6.808;2023-09-12T09:29:15;4.18;;;2.22;;
43248;SDS011;29216;51.248;6.808;2023-09-12T09:31:42;4.07;;;1.98;;
43248;SDS011;29216;51.248;6.808;2023-09-12T09:34:11;4.75;;;2.28;;
43248;SDS011;29216;51.248;6.808;2023-09-12T09:36:40;1.73;;;1.48;;
43248;SDS011;29216;51.248;6.808;2023-09-12T09:39:07;5.95;;;1.80;;
43248;SDS011;29216;51.248;6.808;2023-09-12T09:41:33;2.58;;;2.00;;
43248;SDS011;29216;51.248;6.808;2023-09-12T09:43:59;2.00;;;1.90;;
43248;SDS011;29216;51.248;6.808;2023-09-12T09:46:26;1.83;;;1.70;;
43248;SDS011;29216;51.248;6.808;2023-09-12T09:48:52;1.77;;;1.60;;
43248;SDS011;29216;51.248;6.808;2023-09-12T09:51:18;2.53;;;1.90;;
43248;SDS011;29216;51.248;6.808;2023-09-12T09:53:44;4.13;;;1.92;;
43248;SDS011;29216;51.248;6.808;2023-09-12T09:56:13;2.35;;;1.90;;
43248;SDS011;29216;51.248;6.808;2023-09-12T09:58:45;7.95;;;1.90;;
43248;SDS011;29216;51.248;6.808;2023-09-12T10:01:12;2.55;;;1.75;;
43248;SDS011;29216;51.248;6.808;2023-09-12T10:03:39;3.55;;;2.00;;
43248;SDS011;29216;51.248;6.808;2023-09-12T10:06:06;2.05;;;1.90;;
43248;SDS011;29216;51.248;6.808;2023-09-12T10:08:33;1.92;;;1.83;;
43248;SDS011;29216;51.248;6.808;2023-09-12T10:10:59;2.05;;;1.83;;
43248;SDS011;29216;51.248;6.808;2023-09-12T10:13:26;1.90;;;1.80;;
43248;SDS011;29216;51.248;6.808;2023-09-12T10:15:57;4.10;;;1.90;;
43248;SDS011;29216;51.248;6.808;2023-09-12T10:18:24;3.20;;;1.98;;
43248;SDS011;29216;51.248;6.808;2023-09-12T10:20:52;3.03;;;2.13;;
43248;SDS011;29216;51.248;6.808;2023-09-12T10:23:22;4.00;;;2.58;;
43248;SDS011;29216;51.248;6.808;2023-09-12T10:25:49;3.05;;;2.15;;
43248;SDS011;29216;51.248;6.808;2023-09-12T10:28:16;3.25;;;2.00;;
43248;SDS011;29216;51.248;6.808;2023-09-12T10:30:43;2.42;;;2.03;;
43248;SDS011;29216;51.248;6.808;2023-09-12T10:33:10;3.28;;;2.10;;
43248;SDS011;29216;51.248;6.808;2023-09-12T10:35:37;1.98;;;1.88;;
43248;SDS011;29216;51.248;6.808;2023-09-12T10:38:03;2.13;;;1.90;;
43248;SDS011;29216;51.248;6.808;2023-09-12T10:40:31;3.30;;;1.80;;
43248;SDS011;29216;51.248;6.808;2023-09-12T10:42:57;2.70;;;1.95;;
43248;SDS011;29216;51.248;6.808;2023-09-12T10:45:25;4.50;;;2.38;;
43248;SDS011;29216;51.248;6.808;2023-09-12T10:47:52;3.78;;;2.42;;
43248;SDS011;29216;51.248;6.808;2023-09-12T10:50:19;4.25;;;2.35;;
43248;SDS011;29216;51.248;6.808;2023-09-12T10:52:45;3.55;;;2.28;;
43248;SDS011;29216;51.248;6.808;2023-09-12T10:55:18;4.35;;;2.40;;
43248;SDS011;29216;51.248;6.808;2023-09-12T10:57:59;4.10;;;2.47;;
43248;SDS011;29216;51.248;6.808;2023-09-12T11:00:26;3.92;;;2.75;;
43248;SDS011;29216;51.248;6.808;2023-09-12T11:02:51;2.65;;;2.42;;
43248;SDS011;29216;51.248;6.808;2023-09-12T11:07:56;3.70;;;2.88;;
43248;SDS011;29216;51.248;6.808;2023-09-12T11:10:23;7.25;;;3.00;;
43248;SDS011;29216;51.248;6.808;2023-09-12T11:12:50;3.40;;;3.05;;
43248;SDS011;29216;51.248;6.808;2023-09-12T11:15:16;5.07;;;2.63;;
43248;SDS011;29216;51.248;6.808;2023-09-12T11:17:44;4.38;;;2.95;;
43248;SDS011;29216;51.248;6.808;2023-09-12T11:20:10;7.05;;;3.67;;
43248;SDS011;29216;51.248;6.808;2023-09-12T11:22:38;4.93;;;3.70;;
43248;SDS011;29216;51.248;6.808;2023-09-12T11:25:16;7.90;;;3.97;;
43248;SDS011;29216;51.248;6.808;2023-09-12T11:30:20;8.88;;;3.47;;
43248;SDS011;29216;51.248;6.808;2023-09-12T11:32:48;5.07;;;3.38;;
43248;SDS011;29216;51.248;6.808;2023-09-12T11:35:15;5.78;;;3.70;;
43248;SDS011;29216;51.248;6.808;2023-09-12T11:37:50;5.95;;;3.40;;
43248;SDS011;29216;51.248;6.808;2023-09-12T11:40:17;6.05;;;3.85;;
43248;SDS011;29216;51.248;6.808;2023-09-12T11:42:43;5.13;;;3.75;;
43248;SDS011;29216;51.248;6.808;2023-09-12T11:45:12;4.55;;;3.70;;
43248;SDS011;29216;51.248;6.808;2023-09-12T11:47:39;4.65;;;3.72;;
43248;SDS011;29216;51.248;6.808;2023-09-12T11:50:06;4.97;;;3.75;;
43248;SDS011;29216;51.248;6.808;2023-09-12T11:52:35;4.60;;;3.05;;
43248;SDS011;29216;51.248;6.808;2023-09-12T11:55:02;6.38;;;3.30;;
43248;SDS011;29216;51.248;6.808;2023-09-12T11:57:28;7.53;;;4.10;;
43248;SDS011;29216;51.248;6.808;2023-09-12T11:59:55;3.72;;;3.22;;
43248;SDS011;29216;51.248;6.808;2023-09-12T12:02:21;5.10;;;3.58;;
43248;SDS011;29216;51.248;6.808;2023-09-12T12:04:49;4.05;;;3.65;;
43248;SDS011;29216;51.248;6.808;2023-09-12T12:07:15;4.88;;;3.42;;
43248;SDS011;29216;51.248;6.808;2023-09-12T12:09:41;4.50;;;3.42;;
43248;SDS011;29216;51.248;6.808;2023-09-12T12:14:35;5.22;;;3.50;;
43248;SDS011;29216;51.248;6.808;2023-09-12T12:17:05;4.22;;;3.30;;
43248;SDS011;29216;51.248;6.808;2023-09-12T12:19:32;5.07;;;3.53;;
43248;SDS011;29216;51.248;6.808;2023-09-12T12:21:58;7.85;;;3.90;;
43248;SDS011;29216;51.248;6.808;2023-09-12T12:24:24;4.22;;;3.60;;
43248;SDS011;29216;51.248;6.808;2023-09-12T12:26:50;4.35;;;3.63;;
43248;SDS011;29216;51.248;6.808;2023-09-12T12:29:18;5.68;;;3.80;;
43248;SDS011;29216;51.248;6.808;2023-09-12T12:31:44;5.30;;;3.70;;
43248;SDS011;29216;51.248;6.808;2023-09-12T12:34:11;4.57;;;3.90;;
43248;SDS011;29216;51.248;6.808;2023-09-12T12:36:43;6.25;;;3.95;;
43248;SDS011;29216;51.248;6.808;2023-09-12T12:39:10;4.78;;;3.72;;
43248;SDS011;29216;51.248;6.808;2023-09-12T12:41:37;5.20;;;3.95;;
43248;SDS011;29216;51.248;6.808;2023-09-12T12:44:03;5.28;;;4.55;;
43248;SDS011;29216;51.248;6.808;2023-09-12T12:46:29;6.55;;;4.30;;
43248;SDS011;29216;51.248;6.808;2023-09-12T12:48:55;5.70;;;4.10;;
43248;SDS011;29216;51.248;6.808;2023-09-12T12:51:22;5.32;;;4.60;;
43248;SDS011;29216;51.248;6.808;2023-09-12T12:53:50;7.00;;;4.10;;
43248;SDS011;29216;51.248;6.808;2023-09-12T12:56:17;5.88;;;4.55;;
43248;SDS011;29216;51.248;6.808;2023-09-12T12:59:17;7.95;;;4.63;;
43248;SDS011;29216;51.248;6.808;2023-09-12T13:01:36;6.57;;;4.70;;
43248;SDS011;29216;51.248;6.808;2023-09-12T13:04:06;5.60;;;4.60;;
43248;SDS011;29216;51.248;6.808;2023-09-12T13:06:33;10.32;;;4.80;;
43248;SDS011;29216;51.248;6.808;2023-09-12T13:09:01;6.75;;;4.80;;
43248;SDS011;29216;51.248;6.808;2023-09-12T13:11:29;6.40;;;5.30;;
43248;SDS011;29216;51.248;6.808;2023-09-12T13:13:55;5.82;;;4.68;;
43248;SDS011;29216;51.248;6.808;2023-09-12T13:16:21;5.22;;;4.40;;
43248;SDS011;29216;51.248;6.808;2023-09-12T13:18:47;6.90;;;4.25;;
43248;SDS011;29216;51.248;6.808;2023-09-12T13:21:13;5.43;;;4.50;;
43248;SDS011;29216;51.248;6.808;2023-09-12T13:23:39;7.32;;;4.75;;
43248;SDS011;29216;51.248;6.808;2023-09-12T13:26:06;6.30;;;5.10;;
43248;SDS011;29216;51.248;6.808;2023-09-12T13:28:32;6.50;;;4.82;;
43248;SDS011;29216;51.248;6.808;2023-09-12T13:30:58;5.72;;;4.97;;
43248;SDS011;29216;51.248;6.808;2023-09-12T13:33:24;6.15;;;5.22;;
43248;SDS011;29216;51.248;6.808;2023-09-12T13:35:50;7.70;;;5.63;;
43248;SDS011;29216;51.248;6.808;2023-09-12T13:38:16;6.85;;;5.55;;
43248;SDS011;29216;51.248;6.808;2023-09-12T13:40:44;5.80;;;5.10;;
43248;SDS011;29216;51.248;6.808;2023-09-12T13:43:10;5.70;;;5.10;;
43248;SDS011;29216;51.248;6.808;2023-09-12T13:45:36;5.97;;;5.35;;
43248;SDS011;29216;51.248;6.808;2023-09-12T13:48:03;7.28;;;5.30;;
43248;SDS011;29216;51.248;6.808;2023-09-12T13:50:29;8.20;;;5.32;;
43248;SDS011;29216;51.248;6.808;2023-09-12T13:52:59;5.32;;;4.65;;
43248;SDS011;29216;51.248;6.808;2023-09-12T13:55:25;6.90;;;5.20;;
43248;SDS011;29216;51.248;6.808;2023-09-12T13:57:51;7.53;;;5.65;;
43248;SDS011;29216;51.248;6.808;2023-09-12T14:00:17;6.40;;;5.20;;
43248;SDS011;29216;51.248;6.808;2023-09-12T14:02:43;7.72;;;5.75;;
43248;SDS011;29216;51.248;6.808;2023-09-12T14:05:11;8.23;;;5.75;;
43248;SDS011;29216;51.248;6.808;2023-09-12T14:07:37;6.90;;;6.07;;
43248;SDS011;29216;51.248;6.808;2023-09-12T14:10:04;7.22;;;5.97;;
43248;SDS011;29216;51.248;6.808;2023-09-12T14:12:30;6.72;;;6.03;;
43248;SDS011;29216;51.248;6.808;2023-09-12T14:14:56;6.85;;;5.50;;
43248;SDS011;29216;51.248;6.808;2023-09-12T14:17:22;8.20;;;5.85;;
43248;SDS011;29216;51.248;6.808;2023-09-12T14:19:52;6.07;;;5.35;;
43248;SDS011;29216;51.248;6.808;2023-09-12T14:22:18;7.15;;;5.70;;
43248;SDS011;29216;51.248;6.808;2023-09-12T14:24:46;7.15;;;5.88;;
43248;SDS011;29216;51.248;6.808;2023-09-12T14:27:12;9.50;;;6.68;;
43248;SDS011;29216;51.248;6.808;2023-09-12T14:29:38;7.43;;;6.20;;
43248;SDS011;29216;51.248;6.808;2023-09-12T14:32:04;8.20;;;6.13;;
43248;SDS011;29216;51.248;6.808;2023-09-12T14:34:30;7.47;;;6.43;;
43248;SDS011;29216;51.248;6.808;2023-09-12T14:36:58;7.18;;;6.25;;
43248;SDS011;29216;51.248;6.808;2023-09-12T14:39:24;9.68;;;6.70;;
43248;SDS011;29216;51.248;6.808;2023-09-12T14:41:51;8.23;;;7.00;;
43248;SDS011;29216;51.248;6.808;2023-09-12T14:44:21;7.88;;;6.70;;
43248;SDS011;29216;51.248;6.808;2023-09-12T14:46:58;8.07;;;6.50;;
43248;SDS011;29216;51.248;6.808;2023-09-12T14:49:25;6.90;;;5.55;;
43248;SDS011;29216;51.248;6.808;2023-09-12T14:51:51;10.23;;;5.90;;
43248;SDS011;29216;51.248;6.808;2023-09-12T14:54:17;7.32;;;5.75;;